createdAt,value
2024-03-15T00:01:40.317Z,53.50
2024-03-15T00:04:35.002Z,49.57
2024-03-15T00:07:24.280Z,48.77
2024-03-15T00:10:17.088Z,44.43
2024-03-15T00:13:13.451Z,42.37
2024-03-15T00:16:15.232Z,47.27
2024-03-15T00:19:05.718Z,45.17
2024-03-15T00:22:00.818Z,45.03
2024-03-15T00:24:51.879Z,41.20
2024-03-15T00:27:35.487Z,34.43
2024-03-15T00:30:25.958Z,34.03
2024-03-15T00:33:19.048Z,30.93
2024-03-15T00:36:07.694Z,33.10
2024-03-15T00:38:55.804Z,29.00
2024-03-15T00:41:52.927Z,32.80
2024-03-15T00:44:44.170Z,30.80
2024-03-15T00:47:37.226Z,30.03
2024-03-15T00:50:31.579Z,29.53
2024-03-15T00:53:17.722Z,29.40
2024-03-15T00:56:07.401Z,27.47
2024-03-15T00:58:55.749Z,29.70
2024-03-15T01:01:48.962Z,27.47
2024-03-15T01:04:42.477Z,29.33
2024-03-15T01:07:35.769Z,31.17
2024-03-15T01:10:24.808Z,29.13
2024-03-15T01:13:14.804Z,27.17
2024-03-15T01:16:04.414Z,29.13
2024-03-15T01:18:55.465Z,26.00
2024-03-15T01:21:48.020Z,25.80
2024-03-15T01:24:44.521Z,25.47
2024-03-15T01:27:32.491Z,24.30
2024-03-15T01:30:24.448Z,25.23
2024-03-15T01:33:19.198Z,28.07
2024-03-15T01:36:06.204Z,28.40
2024-03-15T01:38:51.310Z,24.57
2024-03-15T01:41:47.129Z,25.80
2024-03-15T01:44:46.539Z,28.23
2024-03-15T01:47:41.930Z,27.10
2024-03-15T01:50:41.122Z,27.47
2024-03-15T01:53:36.973Z,25.67
2024-03-15T01:56:27.756Z,27.50
2024-03-15T01:59:20.233Z,28.57
2024-03-15T02:02:13.974Z,26.63
2024-03-15T02:05:08.658Z,26.47
2024-03-15T02:07:58.478Z,28.87
2024-03-15T02:10:47.927Z,25.33
2024-03-15T02:13:42.244Z,28.37
2024-03-15T02:16:38.190Z,29.27
2024-03-15T02:19:33.334Z,29.57
2024-03-15T02:22:24.836Z,26.57
2024-03-15T02:25:19.747Z,25.97
2024-03-15T02:28:12.027Z,29.17
2024-03-15T02:31:04.848Z,32.30
2024-03-15T02:34:00.556Z,30.83
2024-03-15T02:36:55.437Z,29.07
2024-03-15T02:39:40.117Z,29.40
2024-03-15T02:42:35.970Z,27.60
2024-03-15T02:45:29.431Z,29.10
2024-03-15T02:48:23.052Z,29.47
2024-03-15T02:51:09.365Z,27.23
2024-03-15T02:53:57.712Z,26.20
2024-03-15T02:56:43.483Z,27.27
2024-03-15T02:59:27.943Z,27.50
2024-03-15T03:02:15.865Z,26.00
2024-03-15T03:05:00.181Z,30.23
2024-03-15T03:07:45.069Z,25.80
2024-03-15T03:10:30.279Z,24.20
2024-03-15T03:13:15.716Z,31.27
2024-03-15T03:16:00.476Z,29.23
2024-03-15T03:18:46.126Z,27.00
2024-03-15T03:21:32.946Z,28.30
2024-03-15T03:24:22.177Z,30.73
2024-03-15T03:27:08.159Z,30.50
2024-03-15T03:29:54.167Z,27.70
2024-03-15T03:32:40.650Z,28.43
2024-03-15T03:35:27.688Z,30.30
2024-03-15T03:38:12.105Z,35.00
2024-03-15T03:41:04.333Z,31.63
2024-03-15T03:43:53.720Z,38.17
2024-03-15T03:46:43.298Z,38.97
2024-03-15T03:49:32.781Z,36.07
2024-03-15T03:52:20.668Z,36.53
2024-03-15T03:55:08.494Z,40.50
2024-03-15T03:57:53.554Z,35.83
2024-03-15T04:00:39.484Z,37.00
2024-03-15T04:03:30.686Z,34.60
2024-03-15T04:06:24.944Z,34.67
2024-03-15T04:09:15.583Z,34.57
2024-03-15T04:12:07.371Z,29.00
2024-03-15T04:14:58.035Z,31.80
2024-03-15T04:17:47.100Z,30.17
2024-03-15T04:20:39.832Z,33.50
2024-03-15T04:23:25.174Z,29.90
2024-03-15T04:26:12.299Z,37.17
2024-03-15T04:29:05.739Z,27.13
2024-03-15T04:31:54.886Z,30.03
2024-03-15T04:34:40.380Z,29.80
2024-03-15T04:37:25.929Z,35.27
2024-03-15T04:40:11.889Z,28.80
2024-03-15T04:42:59.660Z,31.60
2024-03-15T04:45:44.326Z,27.83
2024-03-15T04:48:32.379Z,30.73
2024-03-15T04:51:22.194Z,26.43
2024-03-15T04:54:11.450Z,37.40
2024-03-15T04:57:03.249Z,29.20
2024-03-15T04:59:51.938Z,31.27
2024-03-15T05:02:42.111Z,31.83
2024-03-15T05:05:36.243Z,31.27
2024-03-15T05:08:25.725Z,31.63
2024-03-15T05:11:17.998Z,36.87
2024-03-15T05:14:05.962Z,34.17
2024-03-15T05:16:59.752Z,38.40
2024-03-15T05:19:49.754Z,44.27
2024-03-15T05:22:44.413Z,43.60
2024-03-15T05:25:38.797Z,42.53
2024-03-15T05:28:30.616Z,35.90
2024-03-15T05:31:22.077Z,38.37
2024-03-15T05:34:17.450Z,33.50
2024-03-15T05:37:11.327Z,36.07
2024-03-15T05:40:01.876Z,33.47
2024-03-15T05:42:52.694Z,32.30
2024-03-15T05:45:48.846Z,32.10
2024-03-15T05:48:44.168Z,31.00
2024-03-15T05:51:37.823Z,29.30
2024-03-15T05:54:28.674Z,30.73
2024-03-15T05:57:19.074Z,29.27
2024-03-15T06:00:16.959Z,30.90
2024-03-15T06:03:09.459Z,33.17
2024-03-15T06:05:57.866Z,33.67
2024-03-15T06:08:54.031Z,30.60
2024-03-15T06:11:49.000Z,32.47
2024-03-15T06:14:41.914Z,28.87
2024-03-15T06:17:36.251Z,36.77
2024-03-15T06:20:29.722Z,36.37
2024-03-15T06:23:22.873Z,33.30
2024-03-15T06:26:29.418Z,40.57
2024-03-15T06:29:20.011Z,43.47
2024-03-15T06:32:10.607Z,41.93
2024-03-15T06:35:00.786Z,43.73
2024-03-15T06:37:53.597Z,48.80
2024-03-15T06:41:03.079Z,48.27
2024-03-15T06:44:02.085Z,46.07
2024-03-15T06:47:07.882Z,41.90
2024-03-15T06:50:13.583Z,43.37
2024-03-15T06:53:07.768Z,39.10
2024-03-15T06:56:03.146Z,37.73
2024-03-15T06:58:47.140Z,36.47
2024-03-15T07:01:30.513Z,39.03
2024-03-15T07:04:14.466Z,40.73
2024-03-15T07:07:02.563Z,41.27
2024-03-15T07:09:50.405Z,37.17
2024-03-15T07:12:46.318Z,38.03
2024-03-15T07:15:34.834Z,39.80
2024-03-15T07:18:30.862Z,35.93
2024-03-15T07:21:23.494Z,36.77
2024-03-15T07:24:17.187Z,33.23
2024-03-15T07:27:09.523Z,32.60
2024-03-15T07:30:03.011Z,35.53
2024-03-15T07:32:54.095Z,32.03
2024-03-15T07:35:47.207Z,38.27
2024-03-15T07:38:42.781Z,41.80
2024-03-15T07:41:40.146Z,39.87
2024-03-15T07:44:36.327Z,36.23
2024-03-15T07:47:32.397Z,38.60
2024-03-15T07:50:24.143Z,42.70
2024-03-15T07:53:19.256Z,41.80
2024-03-15T07:56:14.696Z,45.57
2024-03-15T07:59:04.654Z,43.80
2024-03-15T08:01:59.803Z,39.60
2024-03-15T08:04:55.786Z,50.10
2024-03-15T08:07:45.560Z,44.03
2024-03-15T08:10:40.415Z,48.37
2024-03-15T08:13:33.269Z,46.67
2024-03-15T08:16:40.685Z,51.13
2024-03-15T08:19:37.598Z,48.83
2024-03-15T08:22:31.347Z,50.40
2024-03-15T08:25:22.832Z,46.97
2024-03-15T08:28:21.501Z,50.37
2024-03-15T08:31:23.804Z,48.57
2024-03-15T08:34:18.418Z,56.67
2024-03-15T08:37:07.852Z,54.27
2024-03-15T08:40:00.328Z,51.80
2024-03-15T08:42:51.250Z,46.73
2024-03-15T08:45:44.706Z,52.93
2024-03-15T08:48:35.581Z,55.47
2024-03-15T08:51:24.816Z,49.83
2024-03-15T08:54:15.498Z,60.63
2024-03-15T08:57:05.740Z,55.10
2024-03-15T08:59:54.508Z,60.80
2024-03-15T09:02:45.626Z,50.80
2024-03-15T09:05:36.788Z,54.97
2024-03-15T09:08:24.947Z,48.33
2024-03-15T09:11:15.259Z,58.27
2024-03-15T09:14:00.856Z,52.30
2024-03-15T09:16:53.433Z,52.37
2024-03-15T09:19:43.347Z,58.27
2024-03-15T09:22:37.845Z,54.27
2024-03-15T09:25:29.874Z,60.37
2024-03-15T09:28:22.859Z,52.17
2024-03-15T09:31:30.546Z,53.17
2024-03-15T09:34:30.602Z,56.67
2024-03-15T09:37:24.429Z,60.10
2024-03-15T09:40:18.730Z,58.80
2024-03-15T09:43:14.306Z,61.37
2024-03-15T09:46:06.429Z,51.00
2024-03-15T09:48:58.997Z,51.50
2024-03-15T09:51:47.185Z,51.83
2024-03-15T09:54:37.027Z,57.33
2024-03-15T09:57:29.323Z,58.23
2024-03-15T10:00:26.799Z,57.13
2024-03-15T10:03:18.495Z,51.40
2024-03-15T10:06:11.887Z,58.40
2024-03-15T10:09:04.829Z,58.60
2024-03-15T10:11:54.284Z,60.83
2024-03-15T10:14:44.609Z,56.50
2024-03-15T10:17:36.841Z,47.63
2024-03-15T10:20:40.700Z,54.87
2024-03-15T10:23:34.501Z,52.47
2024-03-15T10:26:27.630Z,50.63
2024-03-15T10:29:20.301Z,47.77
2024-03-15T10:32:11.826Z,51.10
2024-03-15T10:35:02.729Z,48.90
2024-03-15T10:37:55.017Z,51.73
2024-03-15T10:40:49.061Z,49.83
2024-03-15T10:43:42.457Z,48.67
2024-03-15T10:46:37.245Z,49.17
2024-03-15T10:49:32.366Z,50.53
2024-03-15T10:52:22.743Z,51.90
2024-03-15T10:55:17.295Z,49.80
2024-03-15T10:58:06.960Z,53.73
2024-03-15T11:00:58.423Z,48.33
2024-03-15T11:03:48.773Z,50.37
2024-03-15T11:06:49.551Z,59.00
2024-03-15T11:09:42.272Z,53.30
2024-03-15T11:12:33.055Z,54.67
2024-03-15T11:15:22.293Z,48.60
2024-03-15T11:18:11.595Z,48.60
2024-03-15T11:20:58.652Z,49.37
2024-03-15T11:23:50.132Z,51.07
2024-03-15T11:26:39.316Z,60.60
2024-03-15T11:29:29.820Z,59.57
2024-03-15T11:32:19.515Z,57.13
2024-03-15T11:35:11.453Z,50.60
2024-03-15T11:38:01.144Z,50.47
2024-03-15T11:40:51.280Z,48.67
2024-03-15T11:43:41.905Z,44.40
2024-03-15T11:46:30.090Z,43.53
2024-03-15T11:49:20.070Z,46.87
2024-03-15T11:52:10.685Z,42.60
2024-03-15T11:55:01.906Z,50.23
2024-03-15T11:57:51.463Z,46.27
2024-03-15T12:00:47.821Z,53.73
2024-03-15T12:03:38.567Z,44.67
2024-03-15T12:06:28.970Z,39.63
2024-03-15T12:09:22.892Z,49.80
2024-03-15T12:12:13.834Z,50.30
2024-03-15T12:15:03.702Z,42.77
2024-03-15T12:17:52.704Z,49.03
2024-03-15T12:20:43.766Z,45.97
2024-03-15T12:23:36.785Z,49.43
2024-03-15T12:26:28.590Z,45.57
2024-03-15T12:29:22.354Z,55.03
2024-03-15T12:32:08.950Z,53.67
2024-03-15T12:34:59.496Z,46.60
2024-03-15T12:37:48.079Z,51.07
2024-03-15T12:40:42.093Z,52.13
2024-03-15T12:43:31.498Z,52.13
2024-03-15T12:46:19.218Z,51.03
2024-03-15T12:49:12.016Z,57.20
2024-03-15T12:52:03.033Z,48.90
2024-03-15T12:54:48.240Z,52.20
2024-03-15T12:57:39.272Z,52.40
2024-03-15T13:00:31.253Z,49.53
2024-03-15T13:03:16.695Z,46.70
2024-03-15T13:06:02.367Z,43.37
2024-03-15T13:08:48.527Z,40.10
2024-03-15T13:11:32.739Z,35.50
2024-03-15T13:14:17.665Z,23.57
2024-03-15T13:17:02.394Z,28.03
2024-03-15T13:19:47.590Z,27.47
2024-03-15T13:22:32.003Z,26.50
2024-03-15T13:25:30.002Z,24.33
2024-03-15T13:28:22.032Z,24.73
2024-03-15T13:31:11.726Z,25.37
2024-03-15T13:33:58.519Z,24.43
2024-03-15T13:36:48.621Z,29.37
2024-03-15T13:39:32.634Z,25.30
2024-03-15T13:42:38.273Z,26.50
2024-03-15T13:45:28.058Z,20.63
2024-03-15T13:48:34.534Z,21.13
2024-03-15T13:51:18.799Z,18.67
2024-03-15T13:54:04.624Z,21.37
2024-03-15T13:56:50.934Z,24.20
2024-03-15T13:59:44.847Z,19.37
2024-03-15T14:02:37.629Z,20.30
2024-03-15T14:05:29.399Z,16.67
2024-03-15T14:08:26.833Z,17.10
2024-03-15T14:11:17.519Z,21.93
2024-03-15T14:14:07.975Z,21.70
2024-03-15T14:17:02.134Z,23.37
2024-03-15T14:20:02.972Z,33.40
2024-03-15T14:22:59.856Z,34.23
2024-03-15T14:25:56.809Z,39.43
2024-03-15T14:28:47.839Z,51.03
2024-03-15T14:31:43.810Z,40.23
2024-03-15T14:34:40.024Z,35.63
2024-03-15T14:37:40.520Z,37.10
2024-03-15T14:40:32.807Z,35.23
2024-03-15T14:43:24.756Z,36.53
2024-03-15T14:46:26.908Z,37.50
2024-03-15T14:49:29.354Z,41.37
2024-03-15T14:52:17.351Z,34.57
2024-03-15T14:55:11.114Z,35.93
2024-03-15T14:58:06.484Z,37.13
2024-03-15T15:01:00.443Z,35.13
2024-03-15T15:03:52.513Z,43.97
2024-03-15T15:06:43.912Z,35.67
2024-03-15T15:09:30.460Z,39.30
2024-03-15T15:12:25.029Z,39.63
2024-03-15T15:15:22.905Z,31.47
2024-03-15T15:18:21.508Z,40.70
2024-03-15T15:21:22.800Z,35.30
2024-03-15T15:24:16.831Z,40.17
2024-03-15T15:27:07.128Z,45.00
2024-03-15T15:30:04.750Z,32.73
2024-03-15T15:32:54.890Z,37.70
2024-03-15T15:35:48.972Z,33.80
2024-03-15T15:38:40.090Z,40.33
2024-03-15T15:41:45.457Z,31.33
2024-03-15T15:44:40.442Z,33.13
2024-03-15T15:47:37.771Z,40.73
2024-03-15T15:50:30.893Z,37.07
2024-03-15T15:53:21.703Z,36.33
2024-03-15T15:56:23.638Z,47.83
2024-03-15T15:59:14.828Z,52.37
2024-03-15T16:02:08.846Z,44.00
2024-03-15T16:05:02.359Z,52.87
2024-03-15T16:07:52.531Z,44.97
2024-03-15T16:10:49.630Z,50.80
2024-03-15T16:13:44.020Z,55.83
2024-03-15T16:16:39.846Z,46.90
2024-03-15T16:19:31.922Z,75.30
2024-03-15T16:22:22.923Z,65.53
2024-03-15T16:25:12.744Z,52.83
2024-03-15T16:28:03.773Z,49.07
2024-03-15T16:31:00.022Z,43.90
2024-03-15T16:33:55.822Z,46.33
2024-03-15T16:36:42.887Z,40.20
2024-03-15T16:39:38.653Z,38.27
2024-03-15T16:42:30.490Z,36.13
2024-03-15T16:45:29.193Z,38.73
2024-03-15T16:48:20.784Z,46.17
2024-03-15T16:51:13.945Z,44.27
2024-03-15T16:54:01.313Z,38.27
2024-03-15T16:56:59.194Z,47.80
2024-03-15T16:59:50.232Z,44.60
2024-03-15T17:02:44.576Z,34.03
2024-03-15T17:05:36.357Z,36.33
2024-03-15T17:08:21.697Z,37.97
2024-03-15T17:11:09.909Z,39.93
2024-03-15T17:14:02.289Z,31.60
2024-03-15T17:16:51.513Z,52.17
2024-03-15T17:19:36.774Z,75.87
2024-03-15T17:22:25.294Z,74.60
2024-03-15T17:25:15.859Z,60.10
2024-03-15T17:28:06.694Z,67.47
2024-03-15T17:30:54.972Z,58.70
2024-03-15T17:33:43.712Z,60.30
2024-03-15T17:36:27.573Z,52.13
2024-03-15T17:39:22.903Z,60.13
2024-03-15T17:42:15.365Z,41.73
2024-03-15T17:45:07.522Z,46.27
2024-03-15T17:48:00.263Z,44.00
2024-03-15T17:50:53.042Z,50.83
2024-03-15T17:53:46.316Z,57.67
2024-03-15T17:56:43.032Z,48.37
2024-03-15T17:59:33.892Z,49.03
2024-03-15T18:02:26.776Z,59.63
2024-03-15T18:05:20.829Z,54.00
2024-03-15T18:08:13.472Z,56.50
2024-03-15T18:11:09.897Z,65.77
2024-03-15T18:14:07.495Z,84.13
2024-03-15T18:17:02.230Z,90.97
2024-03-15T18:19:54.706Z,68.07
2024-03-15T18:22:43.494Z,76.60
2024-03-15T18:25:33.858Z,73.33
2024-03-15T18:28:23.118Z,74.03
2024-03-15T18:31:22.287Z,72.50
2024-03-15T18:34:13.835Z,76.53
2024-03-15T18:36:59.773Z,83.37
2024-03-15T18:40:00.513Z,74.50
2024-03-15T18:42:56.922Z,80.47
2024-03-15T18:45:40.882Z,74.30
2024-03-15T18:48:32.393Z,64.90
2024-03-15T18:51:21.756Z,65.70
2024-03-15T18:54:14.710Z,47.03
2024-03-15T18:57:02.793Z,35.60
2024-03-15T18:59:57.890Z,40.50
2024-03-15T19:02:43.327Z,30.87
2024-03-15T19:05:33.895Z,33.03
2024-03-15T19:08:22.118Z,29.43
2024-03-15T19:11:10.525Z,28.27
2024-03-15T19:13:58.521Z,33.07
2024-03-15T19:16:46.047Z,31.37
2024-03-15T19:19:35.100Z,28.40
2024-03-15T19:22:24.580Z,32.17
2024-03-15T19:25:15.711Z,33.47
2024-03-15T19:28:05.447Z,34.90
2024-03-15T19:30:59.207Z,36.17
2024-03-15T19:33:49.679Z,37.03
2024-03-15T19:36:45.383Z,45.53
2024-03-15T19:39:37.790Z,38.97
2024-03-15T19:42:29.925Z,36.30
2024-03-15T19:45:18.458Z,36.60
2024-03-15T19:48:07.680Z,41.93
2024-03-15T19:50:58.565Z,52.13
2024-03-15T19:53:45.754Z,66.23
2024-03-15T19:56:31.334Z,72.07
2024-03-15T19:59:16.557Z,65.30
2024-03-15T20:02:01.914Z,56.83
2024-03-15T20:04:49.313Z,52.53
2024-03-15T20:07:38.376Z,60.13
2024-03-15T20:10:23.674Z,59.80
2024-03-15T20:13:08.638Z,58.93
2024-03-15T20:15:56.527Z,54.27
2024-03-15T20:18:40.267Z,51.30
2024-03-15T20:21:23.889Z,46.87
2024-03-15T20:24:07.362Z,45.83
2024-03-15T20:26:51.032Z,42.50
2024-03-15T20:29:42.488Z,40.30
2024-03-15T20:32:25.629Z,44.30
2024-03-15T20:35:15.847Z,38.67
2024-03-15T20:38:06.071Z,37.10
2024-03-15T20:40:53.644Z,38.90
2024-03-15T20:43:40.377Z,48.57
2024-03-15T20:46:29.807Z,43.20
2024-03-15T20:49:18.472Z,49.50
2024-03-15T20:52:12.145Z,43.90
2024-03-15T20:55:04.843Z,37.43
2024-03-15T20:57:57.482Z,51.63
2024-03-15T21:00:42.613Z,54.43
2024-03-15T21:03:35.519Z,61.20
2024-03-15T21:06:28.098Z,60.87
2024-03-15T21:09:18.099Z,63.87
2024-03-15T21:12:07.356Z,62.63
2024-03-15T21:14:54.945Z,66.30
2024-03-15T21:17:44.180Z,66.97
2024-03-15T21:20:29.834Z,71.50
2024-03-15T21:23:17.295Z,61.13
2024-03-15T21:26:09.917Z,65.70
2024-03-15T21:28:54.890Z,61.47
2024-03-15T21:31:40.509Z,56.13
2024-03-15T21:34:24.231Z,55.40
2024-03-15T21:37:10.072Z,59.00
2024-03-15T21:39:53.468Z,71.63
2024-03-15T21:42:39.761Z,54.00
2024-03-15T21:45:26.126Z,54.73
2024-03-15T21:48:14.320Z,62.67
2024-03-15T21:51:05.873Z,56.53
2024-03-15T21:53:56.675Z,67.17
2024-03-15T21:56:42.094Z,62.40
2024-03-15T21:59:31.082Z,57.90
2024-03-15T22:02:22.137Z,63.77
2024-03-15T22:05:10.646Z,53.20
2024-03-15T22:07:58.249Z,62.40
2024-03-15T22:10:52.596Z,65.73
2024-03-15T22:13:38.081Z,47.00
2024-03-15T22:16:31.631Z,38.40
2024-03-15T22:19:23.830Z,49.83
2024-03-15T22:22:11.169Z,42.73
2024-03-15T22:25:15.779Z,35.10
2024-03-15T22:28:12.778Z,34.43
2024-03-15T22:31:04.426Z,35.73
2024-03-15T22:33:56.710Z,34.43
2024-03-15T22:36:46.782Z,37.47
2024-03-15T22:39:42.204Z,28.37
2024-03-15T22:42:29.414Z,30.33
2024-03-15T22:45:24.420Z,28.07
2024-03-15T22:48:14.889Z,27.30
2024-03-15T22:51:11.110Z,33.13
2024-03-15T22:54:02.355Z,31.10
2024-03-15T22:56:58.130Z,30.97
2024-03-15T22:59:51.852Z,32.00
2024-03-15T23:02:47.630Z,28.70
2024-03-15T23:05:40.166Z,26.60
2024-03-15T23:08:27.018Z,26.83
2024-03-15T23:11:23.571Z,26.73
2024-03-15T23:14:15.184Z,24.23
2024-03-15T23:17:07.916Z,30.47
2024-03-15T23:20:01.956Z,25.73
2024-03-15T23:22:49.479Z,25.30
2024-03-15T23:25:36.075Z,30.87
2024-03-15T23:28:28.577Z,28.13
2024-03-15T23:31:18.689Z,25.33
2024-03-15T23:34:10.193Z,30.80
2024-03-15T23:36:59.121Z,27.97
2024-03-15T23:39:46.276Z,30.47
2024-03-15T23:42:30.827Z,31.13
2024-03-15T23:45:27.412Z,30.10
2024-03-15T23:48:22.035Z,28.37
2024-03-15T23:51:13.992Z,31.77
2024-03-15T23:54:06.214Z,34.83
2024-03-15T23:57:02.524Z,30.20
2024-03-15T23:59:54.969Z,37.90
